Time;durP1;ratioP1;P1;durP2;ratioP2;P2;SDS_P1;SDS_P2;PMS_P1;PMS_P2;Temp;Humidity;BMP_temperature;BMP_pressure;BME280_temperature;BME280_humidity;BME280_pressure;Samples;Min_cycle;Max_cycle;Signal;HPM_P1;HPM_P2
2023/04/11 00:01:36;;;;;;;24.90;17.90;;;;;;;10.16;65.01;100299.77;103234;1258;139005;-68
2023/04/11 00:04:19;;;;;;;20.50;15.50;;;;;;;10.15;65.07;100290.98;103255;1256;112027;-68
2023/04/11 00:06:43;;;;;;;18.90;14.10;;;;;;;10.14;65.15;100289.27;103351;1256;107335;-68
2023/04/11 00:09:12;;;;;;;16.70;13.50;;;;;;;10.12;65.15;100282.89;103151;1256;139005;-68
2023/04/11 00:11:38;;;;;;;24.60;16.90;;;;;;;10.11;65.19;100278.05;103229;1254;108602;-68
2023/04/11 00:14:16;;;;;;;21.00;14.40;;;;;;;10.10;65.39;100275.84;103143;1256;139057;-68
2023/04/11 00:17:00;;;;;;;26.50;19.20;;;;;;;10.08;65.34;100270.18;103326;1256;113321;-68
2023/04/11 00:19:45;;;;;;;29.70;21.30;;;;;;;10.05;65.52;100269.71;103054;1254;138900;-68
2023/04/11 00:22:32;;;;;;;29.80;20.30;;;;;;;10.04;65.69;100268.88;103275;1254;97674;-68
2023/04/11 00:24:58;;;;;;;24.90;17.20;;;;;;;10.03;65.79;100268.92;103264;1258;109405;-68
2023/04/11 00:27:22;;;;;;;26.00;19.80;;;;;;;10.01;65.92;100268.27;103089;1256;138752;-68
2023/04/11 00:29:46;;;;;;;22.00;15.20;;;;;;;10.00;65.96;100267.59;103232;1254;111538;-69
2023/04/11 00:32:30;;;;;;;22.90;16.60;;;;;;;10.00;65.98;100263.43;102746;1261;138927;-69
2023/04/11 00:35:04;;;;;;;24.30;17.20;;;;;;;10.00;65.93;100265.16;102937;1263;97864;-69
2023/04/11 00:37:42;;;;;;;27.20;17.10;;;;;;;10.00;66.15;100261.89;102774;1263;139208;-69
2023/04/11 00:40:26;;;;;;;27.10;17.00;;;;;;;9.98;66.34;100263.67;102906;1263;98001;-68
2023/04/11 00:42:54;;;;;;;26.60;17.30;;;;;;;9.96;66.36;100257.83;103007;1261;109989;-69
2023/04/11 00:45:17;;;;;;;23.10;17.00;;;;;;;9.95;66.43;100251.10;102708;1263;138848;-69
2023/04/11 00:47:50;;;;;;;23.70;16.60;;;;;;;9.93;66.48;100247.15;102850;1261;98385;-69
2023/04/11 00:50:25;;;;;;;22.10;16.80;;;;;;;9.91;66.56;100244.77;102690;1263;138631;-69
2023/04/11 00:53:00;;;;;;;21.20;16.40;;;;;;;9.89;66.65;100243.63;102829;1261;97997;-68
2023/04/11 00:55:36;;;;;;;23.50;16.40;;;;;;;9.87;66.73;100237.92;102616;1260;138747;-68
2023/04/11 00:58:20;;;;;;;28.80;18.20;;;;;;;9.85;66.70;100238.70;102561;1269;109162;-69
2023/04/11 01:00:50;;;;;;;24.50;16.50;;;;;;;9.83;66.91;100239.61;102711;1267;97978;-69
2023/04/11 01:03:18;;;;;;;27.70;17.90;;;;;;;9.82;67.11;100241.23;102469;1269;138702;-68
2023/04/11 01:05:52;;;;;;;22.40;17.50;;;;;;;9.80;67.09;100238.87;102596;1264;97826;-69
2023/04/11 01:08:17;;;;;;;23.40;17.00;;;;;;;9.76;67.14;100238.80;102476;1267;138572;-69
2023/04/11 01:10:42;;;;;;;21.00;15.70;;;;;;;9.71;67.17;100236.69;102869;1264;105912;-69
2023/04/11 01:13:07;;;;;;;22.70;16.10;;;;;;;9.66;67.24;100234.55;102552;1264;138960;-68
2023/04/11 01:15:31;;;;;;;20.80;15.30;;;;;;;9.60;67.43;100231.95;102935;1264;107320;-69
2023/04/11 01:17:56;;;;;;;25.50;16.90;;;;;;;9.56;67.41;100231.05;102624;1264;97800;-69
2023/04/11 01:20:20;;;;;;;19.10;16.20;;;;;;;9.51;67.43;100226.83;102570;1269;138860;-68
2023/04/11 01:22:46;;;;;;;23.70;16.90;;;;;;;9.47;67.69;100225.20;102641;1266;109485;-68
2023/04/11 01:25:10;;;;;;;22.90;16.90;;;;;;;9.41;67.81;100224.35;102537;1264;139023;-68
2023/04/11 01:27:44;;;;;;;24.70;16.40;;;;;;;9.35;68.00;100218.95;102737;1263;107352;-68
2023/04/11 01:30:12;;;;;;;25.50;16.70;;;;;;;9.29;68.38;100221.19;102720;1263;97706;-69
2023/04/11 01:32:45;;;;;;;21.80;16.40;;;;;;;9.24;68.30;100218.75;103227;1264;138397;-69
2023/04/11 01:35:21;;;;;;;26.60;17.30;;;;;;;9.18;68.50;100218.56;102661;1264;107065;-68
2023/04/11 01:37:48;;;;;;;26.00;17.70;;;;;;;9.12;68.66;100218.36;103022;1258;138636;-69
2023/04/11 01:40:24;;;;;;;28.20;16.40;;;;;;;9.05;68.83;100223.06;103226;1256;108131;-69
2023/04/11 01:42:52;;;;;;;23.90;17.30;;;;;;;8.99;69.06;100223.56;103164;1255;97831;-69
2023/04/11 01:45:25;;;;;;;24.40;16.20;;;;;;;8.93;69.03;100221.09;103348;1256;112339;-68
2023/04/11 01:48:10;;;;;;;27.00;17.10;;;;;;;8.89;69.17;100212.55;103311;1256;107175;-69
2023/04/11 01:50:35;;;;;;;25.60;17.00;;;;;;;8.84;69.35;100210.09;103532;1258;138490;-68
2023/04/11 01:53:18;;;;;;;24.30;16.80;;;;;;;8.81;69.35;100207.92;103181;1256;108577;-68
2023/04/11 01:55:45;;;;;;;24.10;17.60;;;;;;;8.77;69.52;100208.66;103134;1256;138532;-68
2023/04/11 01:58:30;;;;;;;25.50;17.70;;;;;;;8.75;69.75;100208.21;103318;1254;111672;-69
2023/04/11 02:00:58;;;;;;;26.00;17.10;;;;;;;8.72;69.91;100204.32;103234;1259;108304;-68
2023/04/11 02:03:42;;;;;;;25.40;17.30;;;;;;;8.69;70.18;100200.59;103137;1259;97898;-68
2023/04/11 02:06:16;;;;;;;27.20;17.60;;;;;;;8.65;70.01;100196.88;103228;1257;107898;-68
2023/04/11 02:09:00;;;;;;;25.40;18.20;;;;;;;8.61;69.96;100191.23;103063;1260;138519;-68
2023/04/11 02:11:44;;;;;;;24.10;17.30;;;;;;;8.58;70.25;100187.84;103220;1258;112728;-68
2023/04/11 02:14:42;;;;;;;28.30;17.60;;;;;;;8.55;70.44;100188.12;103026;1256;138888;-68
2023/04/11 02:17:17;;;;;;;25.40;17.40;;;;;;;8.52;70.43;100186.11;103667;1256;98807;-68
2023/04/11 02:19:50;;;;;;;28.70;17.80;;;;;;;8.47;70.53;100184.48;103519;1258;138415;-69
2023/04/11 02:22:34;;;;;;;26.20;18.60;;;;;;;8.44;70.57;100179.89;103140;1257;97803;-68
2023/04/11 02:25:00;;;;;;;28.40;19.00;;;;;;;8.41;70.62;100178.38;103002;1259;110316;-68
2023/04/11 02:27:34;;;;;;;26.90;17.20;;;;;;;8.38;70.81;100175.86;102971;1258;108829;-67
2023/04/11 02:30:19;;;;;;;28.80;19.10;;;;;;;8.36;70.89;100171.77;103207;1255;97691;-69
2023/04/11 02:33:03;;;;;;;28.10;18.30;;;;;;;8.33;71.02;100173.73;103064;1258;138377;-68
2023/04/11 02:35:37;;;;;;;25.90;18.50;;;;;;;8.30;71.05;100167.02;103332;1258;97869;-69
2023/04/11 02:38:13;;;;;;;29.80;18.70;;;;;;;8.29;71.14;100167.74;103092;1254;138445;-68
2023/04/11 02:40:47;;;;;;;28.30;19.30;;;;;;;8.27;71.25;100163.48;103225;1256;107935;-68
2023/04/11 02:43:10;;;;;;;27.80;18.60;;;;;;;8.25;71.37;100163.49;103233;1258;97743;-69
2023/04/11 02:45:48;;;;;;;27.90;17.10;;;;;;;8.22;71.43;100156.98;103215;1256;107447;-69
2023/04/11 02:48:33;;;;;;;32.60;19.10;;;;;;;8.19;71.55;100153.25;103308;1256;98050;-68
2023/04/11 02:51:01;;;;;;;27.00;17.90;;;;;;;8.17;71.59;100149.67;103111;1255;138664;-68
2023/04/11 02:53:45;;;;;;;27.10;18.40;;;;;;;8.15;71.78;100149.55;103286;1256;108681;-68
2023/04/11 02:56:19;;;;;;;25.20;17.60;;;;;;;8.12;71.90;100149.98;103146;1256;138604;-68
2023/04/11 02:58:51;;;;;;;25.50;17.30;;;;;;;8.08;72.26;100160.10;103350;1259;108235;-68
2023/04/11 03:01:20;;;;;;;26.50;18.40;;;;;;;8.04;72.46;100155.50;103170;1256;138644;-68
2023/04/11 03:03:47;;;;;;;26.10;17.80;;;;;;;8.01;72.55;100156.10;103243;1256;110795;-68
2023/04/11 03:06:15;;;;;;;23.90;17.30;;;;;;;7.98;72.57;100151.85;103236;1256;108559;-68
2023/04/11 03:08:39;;;;;;;26.50;18.00;;;;;;;7.96;72.72;100152.77;103235;1256;138531;-68
2023/04/11 03:11:03;;;;;;;24.60;17.90;;;;;;;7.92;72.94;100144.55;103106;1256;110781;-68
2023/04/11 03:13:30;;;;;;;28.10;18.60;;;;;;;7.87;73.12;100144.63;103085;1258;141898;-68
2023/04/11 03:16:14;;;;;;;30.20;19.00;;;;;;;7.83;73.17;100138.34;103406;1256;111478;-68
2023/04/11 03:18:59;;;;;;;27.00;19.40;;;;;;;7.77;73.15;100137.09;103189;1256;108776;-68
2023/04/11 03:21:34;;;;;;;29.00;19.90;;;;;;;7.74;73.22;100134.06;103462;1256;138460;-68
2023/04/11 03:24:18;;;;;;;32.00;20.60;;;;;;;7.69;73.19;100135.02;103194;1258;108898;-68
2023/04/11 03:26:53;;;;;;;28.00;21.10;;;;;;;7.66;73.52;100131.10;103130;1256;138668;-68
2023/04/11 03:29:19;;;;;;;29.80;20.60;;;;;;;7.62;73.57;100133.95;103217;1256;111678;-68
2023/04/11 03:32:06;;;;;;;28.80;20.70;;;;;;;7.58;73.88;100135.27;103381;1256;138501;-68
2023/04/11 03:34:43;;;;;;;28.00;20.40;;;;;;;7.53;73.89;100135.19;103403;1254;98314;-69
2023/04/11 03:37:11;;;;;;;28.30;20.60;;;;;;;7.48;74.03;100129.59;103050;1256;108632;-68
2023/04/11 03:39:35;;;;;;;26.60;20.00;;;;;;;7.45;74.49;100121.71;103145;1256;138452;-68
2023/04/11 03:42:11;;;;;;;31.70;20.80;;;;;;;7.40;74.27;100123.55;103272;1256;111240;-68
2023/04/11 03:44:49;;;;;;;30.20;19.70;;;;;;;7.36;74.38;100130.02;103141;1256;138502;-68
2023/04/11 03:47:14;;;;;;;;;;;;;;;7.34;74.38;100127.65;103557;1260;97800;-70
2023/04/11 03:49:40;;;;;;;29.40;20.50;;;;;;;7.30;74.76;100131.36;103137;1259;125016;-69
2023/04/11 03:52:05;;;;;;;29.40;20.80;;;;;;;7.27;74.95;100135.05;103215;1256;97867;-69
2023/04/11 03:54:28;;;;;;;31.40;21.10;;;;;;;7.24;75.03;100134.42;103568;1256;111254;-68
2023/04/11 03:56:53;;;;;;;30.20;20.90;;;;;;;7.22;75.43;100130.66;103140;1256;138726;-68
2023/04/11 03:59:18;;;;;;;27.20;20.00;;;;;;;7.20;75.73;100128.81;103288;1258;98310;-67
2023/04/11 04:01:47;;;;;;;31.60;20.90;;;;;;;7.15;75.93;100128.02;104059;1256;139814;-68
2023/04/11 04:04:11;;;;;;;27.80;20.60;;;;;;;7.12;76.24;100125.15;103226;1260;97543;-68
2023/04/11 04:06:40;;;;;;;30.10;21.00;;;;;;;7.10;75.94;100124.86;103192;1256;111818;-68
2023/04/11 04:09:04;;;;;;;30.80;20.50;;;;;;;7.08;76.40;100123.33;103230;1259;138854;-68
2023/04/11 04:11:35;;;;;;;29.10;20.50;;;;;;;7.07;76.69;100123.54;103233;1254;97878;-68
2023/04/11 04:14:02;;;;;;;30.30;21.00;;;;;;;7.05;76.57;100125.82;103172;1258;138896;-68
2023/04/11 04:16:46;;;;;;;30.70;20.80;;;;;;;7.05;77.07;100123.23;103269;1256;97806;-68
2023/04/11 04:19:10;;;;;;;28.30;20.70;;;;;;;7.03;77.38;100126.89;103306;1256;111756;-69
2023/04/11 04:21:38;;;;;;;29.60;20.80;;;;;;;7.04;77.19;100124.64;103112;1259;107685;-69
2023/04/11 04:24:11;;;;;;;30.30;20.20;;;;;;;7.07;77.15;100127.84;103174;1256;97860;-68
2023/04/11 04:26:56;;;;;;;26.80;19.10;;;;;;;7.46;77.17;100123.94;103146;1259;138534;-69
2023/04/11 04:29:51;;;;;;;25.20;17.60;;;;;;;8.39;76.09;100123.85;103020;1255;97777;-69
2023/04/11 04:32:39;;;;;;;22.60;16.10;;;;;;;9.43;74.29;100122.76;103183;1256;139264;-69
2023/04/11 04:35:07;;;;;;;21.50;16.30;;;;;;;10.33;72.54;100119.26;103806;1257;107607;-69
2023/04/11 04:37:38;;;;;;;23.30;16.20;;;;;;;11.24;70.60;100114.33;103137;1260;139096;-69
2023/04/11 04:40:12;;;;;;;20.40;16.40;;;;;;;12.17;68.38;100110.20;103183;1257;108251;-69
2023/04/11 04:42:48;;;;;;;19.40;14.60;;;;;;;13.05;66.23;100104.89;103655;1259;97825;-69
2023/04/11 04:45:12;;;;;;;18.40;14.50;;;;;;;13.76;64.11;100099.36;103188;1259;138251;-69
2023/04/11 04:47:37;;;;;;;19.10;14.20;;;;;;;14.45;62.37;100096.34;103173;1259;108974;-69
2023/04/11 04:50:03;;;;;;;16.40;13.20;;;;;;;15.23;60.43;100093.13;103207;1254;138477;-69
2023/04/11 04:52:47;;;;;;;17.10;13.50;;;;;;;16.02;58.44;100086.66;103288;1257;109679;-69
2023/04/11 04:55:11;;;;;;;16.90;13.30;;;;;;;16.65;55.91;100087.89;103241;1260;97964;-69
2023/04/11 04:57:35;;;;;;;18.00;13.80;;;;;;;17.14;54.41;100083.36;103168;1254;138160;-69
2023/04/11 04:59:59;;;;;;;17.80;13.80;;;;;;;17.59;52.38;100077.74;103404;1254;106578;-69
2023/04/11 05:02:25;;;;;;;17.80;13.20;;;;;;;18.04;51.41;100079.73;104202;1256;138295;-69
2023/04/11 05:04:49;;;;;;;16.10;13.50;;;;;;;18.54;50.49;100080.29;103100;1260;107914;-68
2023/04/11 05:07:13;;;;;;;16.50;13.00;;;;;;;18.97;47.96;100087.74;103142;1260;97784;-68
2023/04/11 05:09:37;;;;;;;15.70;12.50;;;;;;;19.30;47.57;100083.84;103462;1256;112489;-68
2023/04/11 05:12:09;;;;;;;15.30;12.80;;;;;;;19.69;46.61;100084.59;103340;1256;108073;-68
2023/04/11 05:14:34;;;;;;;15.50;12.30;;;;;;;20.03;45.15;100086.85;103115;1259;138826;-69
2023/04/11 05:16:58;;;;;;;16.40;12.00;;;;;;;20.25;44.49;100083.95;103090;1258;321255;-72
2023/04/11 05:19:22;;;;;;;16.40;12.70;;;;;;;20.52;43.86;100080.87;103183;1254;138332;-68
2023/04/11 05:21:46;;;;;;;16.30;12.50;;;;;;;20.73;43.16;100075.96;103168;1261;111849;-69
2023/04/11 05:24:10;;;;;;;13.40;11.60;;;;;;;20.97;42.38;100063.08;103578;1258;106965;-69
2023/04/11 05:26:34;;;;;;;14.20;12.00;;;;;;;21.27;41.37;100055.81;103078;1261;138243;-69
2023/04/11 05:28:58;;;;;;;14.20;11.80;;;;;;;21.55;41.11;100051.92;103383;1258;107420;-69
2023/04/11 05:31:24;;;;;;;14.40;12.30;;;;;;;22.01;40.51;100045.88;103019;1260;139182;-73
2023/04/11 05:33:48;;;;;;;20.30;12.60;;;;;;;22.41;39.85;100047.88;103281;1255;110798;-70
2023/04/11 05:36:13;;;;;;;14.90;12.20;;;;;;;22.78;38.93;100043.92;103627;1259;107869;-67
2023/04/11 05:38:37;;;;;;;14.90;12.60;;;;;;;23.22;38.32;100035.55;103171;1254;138201;-69
2023/04/11 05:41:01;;;;;;;15.60;12.90;;;;;;;23.66;38.03;100027.70;103212;1256;107633;-68
2023/04/11 05:43:25;;;;;;;17.70;12.30;;;;;;;24.08;37.32;100025.14;103048;1259;139323;-70
2023/04/11 05:45:49;;;;;;;16.90;12.10;;;;;;;24.57;37.37;100017.35;104489;1254;111779;-71
2023/04/11 05:48:13;;;;;;;13.40;11.50;;;;;;;25.11;36.32;100007.77;104490;1254;108309;-70
2023/04/11 05:50:39;;;;;;;12.50;11.20;;;;;;;25.57;35.58;100003.33;104433;1254;138237;-70
2023/04/11 05:53:03;;;;;;;13.60;11.50;;;;;;;25.98;34.67;99999.77;104503;1258;108213;-71
2023/04/11 05:55:27;;;;;;;14.90;11.90;;;;;;;26.44;33.61;100002.08;104394;1254;139772;-70
2023/04/11 05:57:50;;;;;;;18.70;11.50;;;;;;;26.59;33.01;99995.19;103283;1256;110834;-74
2023/04/11 06:00:17;;;;;;;13.20;11.80;;;;;;;26.90;32.62;99988.84;103035;1260;108475;-69
2023/04/11 06:02:41;;;;;;;17.00;11.90;;;;;;;27.08;31.73;99986.45;103429;1260;138023;-71
2023/04/11 06:05:10;;;;;;;14.10;11.10;;;;;;;27.26;31.24;99982.40;103194;1260;106974;-71
2023/04/11 06:07:34;;;;;;;19.60;11.90;;;;;;;27.52;31.69;99981.70;103476;1258;138540;-70
2023/04/11 06:09:58;;;;;;;18.90;11.70;;;;;;;27.84;31.02;99987.84;103240;1260;111529;-73
2023/04/11 06:12:21;;;;;;;15.10;11.20;;;;;;;28.15;30.71;99981.84;103160;1259;107929;-73
2023/04/11 06:14:45;;;;;;;15.20;11.40;;;;;;;28.52;30.12;99979.19;103108;1260;137990;-73
2023/04/11 06:17:09;;;;;;;13.90;10.90;;;;;;;28.77;29.44;99979.80;103295;1257;106984;-71
2023/04/11 06:19:32;;;;;;;13.80;10.20;;;;;;;28.83;28.80;99972.96;103119;1260;140072;-72
2023/04/11 06:21:56;;;;;;;11.70;9.30;;;;;;;28.93;28.80;99969.41;103189;1260;113880;-73
2023/04/11 06:24:35;;;;;;;13.60;9.90;;;;;;;29.15;28.41;99967.08;103267;1260;108261;-72
2023/04/11 06:26:58;;;;;;;13.60;10.30;;;;;;;29.22;27.67;99968.41;103433;1260;138103;-72
2023/04/11 06:29:22;;;;;;;10.10;9.10;;;;;;;29.19;27.70;99970.67;103281;1260;107395;-72
2023/04/11 06:31:45;;;;;;;14.30;10.00;;;;;;;28.98;27.15;99971.06;103066;1260;138338;-69
2023/04/11 06:34:10;;;;;;;10.30;8.50;;;;;;;28.94;27.23;99965.23;103111;1257;112113;-71
2023/04/11 06:36:36;;;;;;;9.40;8.40;;;;;;;28.95;27.19;99961.91;103203;1260;107601;-70
2023/04/11 06:38:59;;;;;;;10.30;8.50;;;;;;;29.01;27.17;99966.08;103203;1258;137902;-72
2023/04/11 06:41:23;;;;;;;12.70;8.60;;;;;;;28.84;26.85;99960.71;103222;1260;108637;-71
2023/04/11 06:43:47;;;;;;;9.90;8.20;;;;;;;28.88;26.85;99955.45;103011;1260;138235;-71
2023/04/11 06:46:11;;;;;;;9.80;8.10;;;;;;;29.05;26.87;99961.09;103244;1260;111099;-71
2023/04/11 06:48:35;;;;;;;10.40;8.10;;;;;;;29.08;26.31;99957.34;103197;1254;108669;-71
2023/04/11 06:50:58;;;;;;;10.10;8.10;;;;;;;29.00;26.31;99960.40;103090;1256;140420;-71
2023/04/11 06:53:22;;;;;;;11.00;8.10;;;;;;;28.96;26.35;99950.45;103148;1260;109239;-71
2023/04/11 06:55:48;;;;;;;9.40;8.40;;;;;;;28.88;25.78;99952.98;103275;1257;137985;-71
2023/04/11 06:58:12;;;;;;;9.10;7.70;;;;;;;28.72;26.11;99945.27;103156;1258;112568;-71
2023/04/11 07:00:36;;;;;;;10.10;7.30;;;;;;;28.60;25.76;99954.55;103013;1259;108074;-70
2023/04/11 07:03:00;;;;;;;9.10;7.70;;;;;;;28.07;25.73;99961.86;103168;1260;137979;-70
2023/04/11 07:05:25;;;;;;;9.30;7.60;;;;;;;27.73;26.37;99943.94;103168;1260;108194;-69
2023/04/11 07:07:48;;;;;;;8.70;7.70;;;;;;;27.65;26.77;99945.17;103085;1254;138131;-70
2023/04/11 07:10:12;;;;;;;8.70;7.70;;;;;;;27.71;26.95;99936.55;103362;1260;111646;-70
2023/04/11 07:12:35;;;;;;;9.70;7.80;;;;;;;27.77;27.08;99939.45;103196;1257;107252;-72
2023/04/11 07:14:59;;;;;;;9.10;8.10;;;;;;;27.78;26.99;99928.94;103027;1257;137662;-72
2023/04/11 07:17:23;;;;;;;11.20;7.70;;;;;;;27.65;26.55;99935.19;103485;1254;107795;-72
2023/04/11 07:19:50;;;;;;;8.30;7.50;;;;;;;27.51;27.09;99925.29;103092;1257;138349;-72
2023/04/11 07:22:13;;;;;;;7.70;6.90;;;;;;;27.56;27.31;99924.92;103241;1258;111433;-72
2023/04/11 07:24:37;;;;;;;10.30;7.30;;;;;;;27.51;27.23;99920.47;103134;1260;108535;-73
2023/04/11 07:27:01;;;;;;;12.40;7.30;;;;;;;27.48;27.16;99926.15;103157;1263;137892;-71
2023/04/11 07:29:25;;;;;;;9.00;7.10;;;;;;;27.30;27.44;99921.98;103606;1257;108059;-74
2023/04/11 07:31:50;;;;;;;7.80;7.10;;;;;;;27.16;27.67;99919.64;103249;1257;137896;-72
2023/04/11 07:34:13;;;;;;;9.60;7.20;;;;;;;27.11;27.75;99908.52;103363;1257;110432;-72
2023/04/11 07:36:37;;;;;;;9.40;6.90;;;;;;;27.18;28.21;99915.48;103231;1254;108307;-72
2023/04/11 07:39:01;;;;;;;8.00;7.00;;;;;;;27.10;28.05;99909.54;103197;1260;137735;-71
2023/04/11 07:41:24;;;;;;;8.90;6.90;;;;;;;27.03;27.92;99910.09;103114;1257;108733;-73
2023/04/11 07:43:48;;;;;;;10.00;7.20;;;;;;;26.92;28.37;99897.09;103290;1256;137914;-72
2023/04/11 07:46:13;;;;;;;8.50;7.60;;;;;;;27.07;28.22;99899.92;103216;1257;110960;-74
2023/04/11 07:48:37;;;;;;;10.00;6.40;;;;;;;27.12;28.30;99899.45;103703;1258;108310;-71
2023/04/11 07:51:00;;;;;;;10.60;6.40;;;;;;;27.26;28.43;99895.36;102952;1257;137938;-71
2023/04/11 07:53:25;;;;;;;9.10;5.90;;;;;;;27.41;27.94;99891.15;103626;1255;107746;-65
2023/04/11 07:55:49;;;;;;;6.70;6.00;;;;;;;27.47;28.17;99884.16;103192;1258;139298;-72
2023/04/11 07:58:12;;;;;;;7.30;6.20;;;;;;;27.79;27.99;99882.71;103403;1258;112426;-72
2023/04/11 08:00:36;;;;;;;8.90;5.90;;;;;;;28.09;27.60;99873.89;103069;1259;107807;-74
2023/04/11 08:03:03;;;;;;;7.00;5.30;;;;;;;28.19;27.03;99877.02;103089;1258;137716;-76
2023/04/11 08:05:26;;;;;;;6.20;5.60;;;;;;;28.01;27.05;99879.61;103454;1256;108011;-76
2023/04/11 08:07:50;;;;;;;7.40;5.70;;;;;;;27.87;26.91;99877.21;104389;1256;138006;-75
2023/04/11 08:10:14;;;;;;;5.70;5.20;;;;;;;27.70;26.90;99878.00;103363;1260;112395;-72
2023/04/11 08:12:38;;;;;;;7.00;5.20;;;;;;;27.52;26.99;99876.38;103135;1260;108023;-71
2023/04/11 08:15:02;;;;;;;6.20;5.00;;;;;;;27.44;26.97;99875.56;103271;1254;137905;-70
2023/04/11 08:17:27;;;;;;;5.50;4.80;;;;;;;27.17;27.38;99861.88;103263;1255;107336;-71
2023/04/11 08:19:52;;;;;;;6.10;4.50;;;;;;;27.26;27.22;99862.85;103126;1254;137991;-72
2023/04/11 08:22:16;;;;;;;5.80;4.70;;;;;;;26.81;27.41;99876.94;103209;1255;112224;-73
2023/04/11 08:24:40;;;;;;;5.60;5.10;;;;;;;25.50;28.08;99879.58;103479;1254;106239;-70
2023/04/11 08:27:04;;;;;;;6.30;4.40;;;;;;;24.18;29.47;99869.82;103157;1260;137860;-71
2023/04/11 08:29:27;;;;;;;7.70;5.20;;;;;;;22.97;30.91;99878.83;103241;1254;108630;-68
2023/04/11 08:31:51;;;;;;;8.70;5.70;;;;;;;21.54;32.81;99877.94;103101;1261;137908;-71
2023/04/11 08:34:14;;;;;;;6.70;5.60;;;;;;;20.19;34.98;99868.89;103346;1254;111099;-69
2023/04/11 08:36:38;;;;;;;5.80;4.70;;;;;;;19.18;36.59;99873.51;103023;1254;108253;-70
2023/04/11 08:39:02;;;;;;;8.20;5.30;;;;;;;19.10;37.44;99876.05;102995;1254;137602;-69
2023/04/11 08:41:29;;;;;;;6.00;5.00;;;;;;;19.47;37.15;99860.42;103047;1254;109143;-70
2023/04/11 08:43:53;;;;;;;4.60;4.00;;;;;;;19.16;37.00;99854.26;103404;1255;137866;-69
2023/04/11 08:46:17;;;;;;;4.80;4.20;;;;;;;19.54;36.97;99850.02;103204;1254;113273;-72
2023/04/11 08:48:41;;;;;;;7.30;3.70;;;;;;;20.28;35.88;99845.76;103298;1254;111245;-73
2023/04/11 08:51:06;;;;;;;5.70;4.10;;;;;;;20.95;34.90;99838.58;103351;1254;137722;-70
2023/04/11 08:53:33;;;;;;;5.10;4.00;;;;;;;21.53;34.10;99842.98;103224;1255;107443;-68
2023/04/11 08:55:58;;;;;;;5.50;4.30;;;;;;;21.71;33.60;99832.13;103021;1254;137960;-71
2023/04/11 08:58:22;;;;;;;6.40;4.20;;;;;;;21.84;33.05;99832.80;103559;1259;113017;-70
2023/04/11 09:00:46;;;;;;;6.10;4.30;;;;;;;21.76;33.05;99826.16;103117;1254;108144;-70
2023/04/11 09:03:11;;;;;;;4.50;3.70;;;;;;;21.15;33.51;99821.55;103086;1257;137996;-70
2023/04/11 09:05:37;;;;;;;4.80;3.90;;;;;;;21.20;33.84;99805.64;103696;1254;107442;-70
2023/04/11 09:08:03;;;;;;;6.10;4.00;;;;;;;20.98;33.82;99812.00;103173;1260;137625;-71
2023/04/11 09:10:27;;;;;;;5.00;3.60;;;;;;;20.61;34.51;99809.11;103203;1254;111797;-70
2023/04/11 09:12:51;;;;;;;4.30;3.40;;;;;;;20.89;34.81;99804.95;103308;1254;107932;-70
2023/04/11 09:15:20;;;;;;;4.20;3.60;;;;;;;21.29;33.42;99813.91;103149;1254;138709;-71
2023/04/11 09:17:43;;;;;;;7.20;3.50;;;;;;;21.13;33.18;99813.11;103389;1254;107281;-70
2023/04/11 09:20:16;;;;;;;4.70;3.60;;;;;;;21.10;33.39;99797.95;103178;1260;137780;-71
2023/04/11 09:22:39;;;;;;;5.90;3.70;;;;;;;21.27;33.03;99792.64;103644;1254;111343;-71
2023/04/11 09:25:07;;;;;;;5.30;3.20;;;;;;;21.43;32.62;99794.31;103423;1254;106893;-71
2023/04/11 09:27:31;;;;;;;4.20;3.50;;;;;;;21.23;32.46;99784.88;103588;1260;137426;-71
2023/04/11 09:29:55;;;;;;;6.70;4.00;;;;;;;20.66;33.21;99766.98;103200;1254;108021;-71
2023/04/11 09:32:29;;;;;;;6.80;4.00;;;;;;;20.62;33.74;99757.19;103230;1254;138297;-70
2023/04/11 09:35:08;;;;;;;4.30;3.00;;;;;;;20.74;33.35;99755.20;103271;1260;111702;-70
2023/04/11 09:37:43;;;;;;;5.20;2.90;;;;;;;20.88;32.97;99764.81;103119;1254;138317;-71
2023/04/11 09:40:09;;;;;;;3.30;2.60;;;;;;;20.21;33.19;99743.72;103383;1258;97773;-71
2023/04/11 09:42:33;;;;;;;3.70;3.20;;;;;;;20.13;33.97;99736.91;103677;1254;108246;-73
2023/04/11 09:44:57;;;;;;;5.00;2.60;;;;;;;20.40;33.50;99741.47;103280;1254;137902;-73
2023/04/11 09:47:21;;;;;;;2.70;2.50;;;;;;;20.56;32.45;99725.17;103285;1259;111673;-73
2023/04/11 09:49:46;;;;;;;3.20;2.80;;;;;;;20.60;32.47;99719.77;103110;1254;138082;-72
2023/04/11 09:52:09;;;;;;;4.00;2.90;;;;;;;20.66;32.33;99726.89;103299;1254;97809;-73
2023/04/11 09:54:33;;;;;;;10.00;3.10;;;;;;;20.64;32.47;99715.58;103325;1254;108591;-72
2023/04/11 09:56:58;;;;;;;4.50;3.40;;;;;;;20.52;32.27;99732.96;103173;1254;138919;-70
2023/04/11 09:59:25;;;;;;;4.50;2.80;;;;;;;20.22;32.76;99713.45;103171;1259;111245;-76
2023/04/11 10:01:50;;;;;;;4.20;3.00;;;;;;;20.23;33.41;99702.98;102997;1254;137900;-72
2023/04/11 10:04:14;;;;;;;3.40;2.90;;;;;;;20.30;32.90;99726.23;103136;1254;98220;-70
2023/04/11 10:06:46;;;;;;;4.40;3.40;;;;;;;20.29;32.88;99716.27;103241;1254;108618;-71
2023/04/11 10:09:12;;;;;;;4.00;3.60;;;;;;;20.15;33.33;99699.77;103127;1254;137686;-72
2023/04/11 10:11:36;;;;;;;4.60;3.70;;;;;;;19.64;34.03;99700.23;103796;1254;111602;-71
2023/04/11 10:14:00;;;;;;;5.10;3.90;;;;;;;19.22;34.89;99690.64;103207;1257;138528;-71
2023/04/11 10:16:24;;;;;;;4.60;3.90;;;;;;;19.21;35.37;99687.55;103124;1256;98145;-71
2023/04/11 10:19:23;;;;;;;5.40;3.90;;;;;;;19.26;35.60;99690.70;103258;1257;108455;-71
2023/04/11 10:21:46;;;;;;;5.30;4.70;;;;;;;19.32;35.61;99687.94;103273;1254;97776;-70
2023/04/11 10:24:12;;;;;;;5.60;4.80;;;;;;;19.10;35.41;99708.99;103329;1254;111741;-70
2023/04/11 10:26:51;;;;;;;6.70;4.60;;;;;;;18.97;36.14;99692.56;103118;1255;137875;-72
2023/04/11 10:29:46;;;;;;;5.30;4.70;;;;;;;19.06;36.12;99709.67;103390;1254;98135;-72
2023/04/11 10:32:18;;;;;;;5.50;4.80;;;;;;;18.74;36.34;99696.95;103262;1254;137499;-72
2023/04/11 10:35:21;;;;;;;8.90;5.00;;;;;;;18.34;36.94;99694.09;103767;1255;97823;-71
2023/04/11 10:37:46;;;;;;;6.40;4.30;;;;;;;18.36;36.64;99714.65;103382;1254;137791;-71
2023/04/11 10:40:10;;;;;;;5.40;4.70;;;;;;;18.41;36.73;99701.13;103327;1254;107436;-71
2023/04/11 10:42:35;;;;;;;7.70;5.20;;;;;;;18.42;36.80;99684.79;103298;1258;97796;-72
2023/04/11 10:45:23;;;;;;;8.10;4.60;;;;;;;18.39;36.17;99686.84;103068;1256;137538;-72
2023/04/11 10:48:02;;;;;;;4.20;3.70;;;;;;;18.26;35.38;99699.55;103031;1257;97866;-71
2023/04/11 10:50:41;;;;;;;5.40;4.30;;;;;;;17.99;35.92;99681.83;103857;1255;138083;-71
2023/04/11 10:53:06;;;;;;;5.40;3.90;;;;;;;17.58;36.71;99667.63;103136;1259;107892;-73
2023/04/11 10:55:41;;;;;;;6.90;4.50;;;;;;;17.55;37.11;99667.53;102982;1259;138127;-73
2023/04/11 10:58:06;;;;;;;6.30;4.50;;;;;;;17.75;36.70;99682.45;103062;1256;107544;-72
2023/04/11 11:01:08;;;;;;;4.90;4.20;;;;;;;17.78;36.67;99695.28;103096;1259;97858;-72
2023/04/11 11:03:58;;;;;;;5.50;4.50;;;;;;;17.58;37.21;99663.95;103182;1254;112239;-78
2023/04/11 11:06:23;;;;;;;4.90;4.40;;;;;;;17.48;37.26;99668.12;103213;1254;107569;-75
2023/04/11 11:08:46;;;;;;;8.10;4.00;;;;;;;17.46;37.17;99657.55;103032;1256;137607;-75
2023/04/11 11:11:12;;;;;;;4.20;3.80;;;;;;;17.33;37.00;99662.02;103320;1258;107832;-75
2023/04/11 11:13:39;;;;;;;10.20;4.00;;;;;;;17.23;35.88;99646.55;103197;1258;138093;-74
2023/04/11 11:16:05;;;;;;;5.00;3.90;;;;;;;17.27;35.76;99654.16;103265;1254;111438;-77